Aviation Digital Data Service (ADDS)

Output produced by METARs form (0325 UTC 19 August 2019)
found at http://www.aviationweather.gov/metar/data/
 
Forecast for: LFST (STRASBOURG/ENTZH, FR)
Text: TAF LFST 182300Z 1900/1924 VRB04KT 9999 SCT035
Forecast period: 0000 UTC 19 August 2019 to 0000 UTC 20 August 2019
Forecast type: FROM: standard forecast or significant change
Winds: variable direction winds at 5 MPH (4 knots; 2.1 m/s)
Visibility: 6 or more miles 10+ km)
Ceiling: at least 12,000 feet AGL
Clouds: scattered clouds at 3500 feet AGL
Weather: no significant weather forecast for this period
Text: TEMPO 1910/1915 28010KT -SHRA FEW035CB
Forecast period: 1000 to 1500 UTC 19 August 2019
Forecast type: TEMPORARY: The following changes expected for less than half the time period
Winds: from the W (280 degrees) at 12 MPH (10 knots; 5.1 m/s)
Visibility: missing
Ceiling: at least 12,000 feet AGL
Clouds: few clouds at 3500 feet AGL
Weather: -SHRA  (light rain showers)